createdAt,value
2018-11-05T00:01:36.441Z,18.27
2018-11-05T00:04:04.580Z,18.05
2018-11-05T00:06:32.718Z,18.40
2018-11-05T00:09:00.817Z,17.70
2018-11-05T00:11:29.088Z,17.15
2018-11-05T00:13:57.164Z,17.20
2018-11-05T00:16:25.290Z,17.60
2018-11-05T00:18:53.400Z,16.97
2018-11-05T00:21:21.479Z,17.62
2018-11-05T00:23:49.545Z,17.30
2018-11-05T00:26:17.758Z,17.10
2018-11-05T00:28:45.833Z,16.70
2018-11-05T00:31:14.050Z,15.70
2018-11-05T00:33:42.161Z,16.87
2018-11-05T00:36:10.312Z,16.07
2018-11-05T00:38:38.369Z,16.25
2018-11-05T00:41:06.519Z,15.90
2018-11-05T00:43:34.593Z,16.02
2018-11-05T00:46:02.782Z,16.27
2018-11-05T00:48:30.880Z,16.07
2018-11-05T00:50:59.038Z,15.88
2018-11-05T00:53:27.130Z,16.65
2018-11-05T00:55:55.296Z,16.10
2018-11-05T00:58:23.429Z,16.62
2018-11-05T01:00:51.666Z,16.23
2018-11-05T01:03:19.742Z,16.15
2018-11-05T01:05:47.831Z,17.12
2018-11-05T01:08:15.884Z,17.25
2018-11-05T01:10:44.093Z,17.45
2018-11-05T01:13:12.152Z,17.00
2018-11-05T01:15:40.368Z,16.37
2018-11-05T01:18:08.424Z,17.15
2018-11-05T01:22:48.734Z,17.30
2018-11-05T01:25:16.833Z,17.35
2018-11-05T01:27:44.889Z,16.90
2018-11-05T01:30:13.685Z,17.10
2018-11-05T01:32:41.946Z,16.70
2018-11-05T01:35:11.577Z,17.00
2018-11-05T01:37:39.691Z,16.70
2018-11-05T01:40:09.306Z,17.15
2018-11-05T01:42:37.621Z,16.95
2018-11-05T01:45:07.047Z,16.85
2018-11-05T01:47:35.126Z,16.90
2018-11-05T01:50:03.300Z,16.97
2018-11-05T01:52:31.378Z,17.17
2018-11-05T01:54:59.486Z,16.62
2018-11-05T01:57:27.586Z,17.40
2018-11-05T01:59:55.687Z,17.32
2018-11-05T02:02:23.851Z,16.48
2018-11-05T02:04:52.036Z,17.00
2018-11-05T02:07:20.134Z,17.05
2018-11-05T02:09:48.249Z,16.35
2018-11-05T02:12:16.338Z,16.30
2018-11-05T02:14:44.430Z,16.73
2018-11-05T02:17:12.905Z,16.93
2018-11-05T02:19:41.439Z,17.42
2018-11-05T02:22:09.659Z,16.75
2018-11-05T02:24:37.746Z,17.12
2018-11-05T02:27:05.905Z,17.25
2018-11-05T02:29:34.151Z,16.82
2018-11-05T02:32:02.433Z,17.12
2018-11-05T02:34:30.602Z,17.10
2018-11-05T02:36:58.693Z,17.17
2018-11-05T02:39:26.836Z,16.82
2018-11-05T02:41:54.998Z,17.77
2018-11-05T02:44:23.254Z,17.70
2018-11-05T02:46:51.320Z,17.65
2018-11-05T02:49:19.531Z,17.82
2018-11-05T02:51:47.648Z,17.48
2018-11-05T02:54:15.710Z,17.65
2018-11-05T02:56:43.795Z,17.00
2018-11-05T02:59:11.875Z,17.17
2018-11-05T03:01:39.974Z,17.27
2018-11-05T03:04:08.068Z,17.23
2018-11-05T03:06:43.001Z,17.48
2018-11-05T03:09:12.449Z,17.70
2018-11-05T03:11:40.915Z,17.00
2018-11-05T03:14:09.184Z,17.12
2018-11-05T03:16:37.776Z,17.10
2018-11-05T03:19:06.161Z,17.90
2018-11-05T03:21:34.384Z,16.55
2018-11-05T03:24:02.541Z,17.90
2018-11-05T03:26:30.989Z,18.07
2018-11-05T03:28:59.101Z,17.80
2018-11-05T03:31:27.217Z,18.12
2018-11-05T03:33:55.451Z,17.45
2018-11-05T03:36:23.669Z,17.45
2018-11-05T03:38:51.850Z,17.62
2018-11-05T03:41:19.944Z,18.00
2018-11-05T03:43:48.048Z,17.70
2018-11-05T03:46:16.137Z,18.33
2018-11-05T03:48:44.237Z,18.10
2018-11-05T03:51:12.329Z,17.57
2018-11-05T03:53:40.528Z,18.03
2018-11-05T03:56:08.650Z,18.07
2018-11-05T03:58:36.715Z,17.83
2018-11-05T04:01:04.829Z,17.97
2018-11-05T04:03:33.091Z,17.60
2018-11-05T04:06:01.149Z,17.62
2018-11-05T04:08:29.437Z,18.42
2018-11-05T04:10:57.552Z,17.70
2018-11-05T04:13:25.657Z,17.75
2018-11-05T04:15:53.812Z,18.00
2018-11-05T04:18:21.932Z,18.45
2018-11-05T04:20:50.109Z,18.52
2018-11-05T04:23:18.365Z,18.10
2018-11-05T04:25:46.471Z,17.82
2018-11-05T04:29:41.235Z,17.75
2018-11-05T04:32:09.437Z,17.00
2018-11-05T04:34:37.528Z,17.57
2018-11-05T04:37:05.804Z,18.40
2018-11-05T04:39:33.920Z,17.25
2018-11-05T04:42:02.050Z,17.60
2018-11-05T04:44:30.312Z,17.82
2018-11-05T04:46:58.418Z,18.17
2018-11-05T04:49:26.701Z,17.95
2018-11-05T04:51:54.833Z,18.12
2018-11-05T04:54:22.916Z,16.85
2018-11-05T04:56:51.038Z,17.15
2018-11-05T04:59:19.245Z,17.17
2018-11-05T05:01:47.350Z,17.57
2018-11-05T05:04:15.565Z,17.30
2018-11-05T05:06:43.885Z,17.07
2018-11-05T05:09:12.913Z,16.70
2018-11-05T05:11:41.400Z,18.00
2018-11-05T05:14:09.708Z,17.37
2018-11-05T05:16:38.426Z,18.27
2018-11-05T05:19:06.532Z,18.20
2018-11-05T05:21:36.007Z,18.12
2018-11-05T05:24:04.153Z,18.37
2018-11-05T05:26:32.373Z,18.05
2018-11-05T05:29:00.476Z,18.67
2018-11-05T05:31:28.770Z,18.37
2018-11-05T05:33:56.895Z,18.73
2018-11-05T05:36:24.988Z,18.48
2018-11-05T05:38:53.085Z,18.85
2018-11-05T05:41:21.341Z,19.57
2018-11-05T05:43:49.444Z,19.62
2018-11-05T05:46:17.638Z,19.12
2018-11-05T05:48:45.745Z,19.70
2018-11-05T05:51:14.108Z,19.53
2018-11-05T05:53:42.290Z,19.40
2018-11-05T05:56:10.390Z,19.07
2018-11-05T05:58:38.548Z,19.35
2018-11-05T06:01:06.628Z,19.40
2018-11-05T06:03:34.838Z,18.95
2018-11-05T06:06:02.966Z,19.45
2018-11-05T06:08:31.121Z,19.20
2018-11-05T06:10:59.273Z,20.05
2018-11-05T06:13:27.533Z,19.02
2018-11-05T06:15:55.727Z,19.62
2018-11-05T06:18:23.748Z,19.43
2018-11-05T06:20:51.853Z,19.20
2018-11-05T06:23:20.151Z,18.87
2018-11-05T06:25:48.232Z,18.65
2018-11-05T06:28:16.468Z,17.90
2018-11-05T06:30:44.577Z,18.48
2018-11-05T06:33:12.745Z,18.85
2018-11-05T06:35:40.873Z,18.07
2018-11-05T06:38:09.226Z,19.40
2018-11-05T06:40:37.342Z,18.02
2018-11-05T06:43:05.831Z,19.62
2018-11-05T06:45:34.015Z,19.42
2018-11-05T06:48:02.046Z,19.23
2018-11-05T06:50:30.150Z,20.00
2018-11-05T06:52:58.353Z,20.02
2018-11-05T06:55:26.335Z,19.57
2018-11-05T06:57:54.673Z,20.65
2018-11-05T07:00:23.909Z,20.85
2018-11-05T07:02:52.068Z,21.37
2018-11-05T07:05:20.309Z,21.02
2018-11-05T07:07:48.469Z,20.88
2018-11-05T07:10:17.223Z,20.82
2018-11-05T07:12:45.625Z,21.12
2018-11-05T07:15:15.911Z,20.62
2018-11-05T07:17:45.008Z,21.57
2018-11-05T07:20:21.281Z,21.23
2018-11-05T07:22:50.173Z,20.95
2018-11-05T07:25:18.309Z,20.60
2018-11-05T07:27:46.610Z,21.07
2018-11-05T07:30:19.604Z,20.92
2018-11-05T07:32:48.614Z,21.20
2018-11-05T07:35:16.804Z,20.33
2018-11-05T07:37:44.943Z,20.95
2018-11-05T07:40:14.260Z,21.87
2018-11-05T07:42:42.420Z,20.80
2018-11-05T07:45:13.477Z,21.65
2018-11-05T07:47:42.693Z,21.68
2018-11-05T07:50:12.270Z,22.40
2018-11-05T07:52:40.360Z,22.20
2018-11-05T07:55:10.256Z,22.43
2018-11-05T07:57:39.201Z,21.60
2018-11-05T08:00:15.898Z,21.77
2018-11-05T08:02:44.775Z,21.55
2018-11-05T08:05:13.376Z,20.52
2018-11-05T08:07:41.549Z,21.50
2018-11-05T08:10:10.125Z,21.70
2018-11-05T08:12:38.845Z,21.95
2018-11-05T08:15:08.212Z,22.52
2018-11-05T08:17:36.341Z,21.42
2018-11-05T08:20:04.720Z,21.75
2018-11-05T08:22:32.860Z,22.70
2018-11-05T08:25:01.060Z,22.03
2018-11-05T08:27:29.186Z,22.65
2018-11-05T08:29:57.301Z,21.73
2018-11-05T08:32:25.425Z,21.95
2018-11-05T08:34:53.593Z,22.10
2018-11-05T08:37:21.696Z,22.00
2018-11-05T08:39:49.846Z,22.17
2018-11-05T08:42:17.952Z,21.85
2018-11-05T08:44:46.081Z,21.90
2018-11-05T08:47:14.296Z,23.15
2018-11-05T08:49:42.417Z,22.50
2018-11-05T08:52:10.870Z,22.13
2018-11-05T08:54:39.245Z,23.20
2018-11-05T08:57:07.421Z,22.87
2018-11-05T08:59:35.557Z,22.60
2018-11-05T09:02:03.735Z,23.42
2018-11-05T09:04:31.912Z,22.50
2018-11-05T09:07:00.098Z,22.20
2018-11-05T09:09:28.233Z,23.07
2018-11-05T09:11:56.391Z,22.27
2018-11-05T09:14:24.457Z,23.10
2018-11-05T09:16:52.760Z,22.67
2018-11-05T09:19:20.964Z,22.73
2018-11-05T09:21:49.146Z,22.48
2018-11-05T09:24:17.306Z,23.40
2018-11-05T09:26:45.404Z,23.57
2018-11-05T09:29:13.532Z,23.32
2018-11-05T09:31:41.633Z,23.73
2018-11-05T09:34:09.763Z,24.25
2018-11-05T09:36:37.914Z,24.52
2018-11-05T09:39:07.226Z,24.98
2018-11-05T09:41:35.355Z,26.50
2018-11-05T09:44:03.646Z,25.95
2018-11-05T09:46:31.759Z,23.98
2018-11-05T09:48:59.946Z,24.27
2018-11-05T09:51:28.078Z,24.90
2018-11-05T09:53:56.174Z,24.50
2018-11-05T09:56:24.343Z,25.00
2018-11-05T09:58:52.438Z,24.72
2018-11-05T10:01:20.550Z,23.45
2018-11-05T10:03:57.550Z,23.55
2018-11-05T10:06:26.496Z,23.95
2018-11-05T10:08:54.637Z,24.23
2018-11-05T10:11:22.785Z,23.47
2018-11-05T10:13:50.910Z,23.77
2018-11-05T10:16:19.085Z,24.63
2018-11-05T10:18:47.205Z,24.00
2018-11-05T10:21:15.473Z,23.30
2018-11-05T10:23:43.671Z,24.60
2018-11-05T10:26:11.951Z,23.55
2018-11-05T10:28:40.069Z,25.08
2018-11-05T10:31:08.205Z,23.67
2018-11-05T10:33:36.460Z,23.67
2018-11-05T10:36:04.619Z,23.83
2018-11-05T10:38:32.889Z,23.32
2018-11-05T10:41:01.253Z,24.27
2018-11-05T10:43:29.371Z,26.87
2018-11-05T10:45:57.562Z,22.73
2018-11-05T10:48:25.735Z,22.73
2018-11-05T10:50:53.974Z,22.10
2018-11-05T10:53:22.277Z,23.10
2018-11-05T10:55:50.364Z,22.85
2018-11-05T10:58:18.644Z,22.27
2018-11-05T11:00:52.199Z,21.43
2018-11-05T11:03:20.622Z,21.42
2018-11-05T11:05:48.885Z,21.82
2018-11-05T11:08:17.045Z,21.80
2018-11-05T11:10:45.197Z,21.75
2018-11-05T11:13:13.465Z,21.85
2018-11-05T11:15:41.587Z,21.70
2018-11-05T11:18:09.780Z,21.60
2018-11-05T11:20:37.948Z,22.05
2018-11-05T11:23:06.178Z,22.05
2018-11-05T11:25:34.302Z,22.42
2018-11-05T11:28:02.566Z,22.52
2018-11-05T11:30:30.593Z,22.73
2018-11-05T11:32:58.774Z,22.60
2018-11-05T11:35:26.906Z,22.98
2018-11-05T11:37:55.273Z,22.95
2018-11-05T11:40:26.871Z,23.22
2018-11-05T11:42:55.018Z,22.65
2018-11-05T11:45:23.742Z,22.37
2018-11-05T11:47:51.949Z,21.73
2018-11-05T11:50:20.368Z,22.67
2018-11-05T11:52:48.886Z,22.90
2018-11-05T11:55:18.157Z,23.45
2018-11-05T11:57:46.910Z,23.02
2018-11-05T12:00:17.119Z,22.60
2018-11-05T12:02:45.823Z,22.45
2018-11-05T12:05:14.468Z,22.62
2018-11-05T12:07:42.517Z,22.45
2018-11-05T12:10:13.632Z,22.55
2018-11-05T12:12:41.849Z,22.35
2018-11-05T12:15:10.986Z,23.12
2018-11-05T12:17:39.873Z,23.02
2018-11-05T12:20:10.212Z,22.62
2018-11-05T12:22:38.378Z,23.40
2018-11-05T12:25:06.691Z,23.20
2018-11-05T12:27:34.873Z,21.70
2018-11-05T12:30:03.092Z,21.60
2018-11-05T12:32:31.376Z,21.93
2018-11-05T12:34:59.514Z,21.68
2018-11-05T12:37:27.621Z,22.87
2018-11-05T12:39:55.733Z,21.03
2018-11-05T12:42:23.973Z,21.52
2018-11-05T12:44:52.149Z,21.80
2018-11-05T12:47:20.220Z,21.87
2018-11-05T12:49:48.404Z,22.15
2018-11-05T12:52:16.576Z,21.37
2018-11-05T12:54:44.744Z,21.00
2018-11-05T12:57:12.866Z,22.70
2018-11-05T12:59:41.060Z,21.82
2018-11-05T13:02:09.197Z,22.22
2018-11-05T13:04:37.309Z,22.37
2018-11-05T13:07:05.578Z,23.47
2018-11-05T13:09:33.684Z,21.77
2018-11-05T13:12:01.945Z,20.85
2018-11-05T13:14:30.084Z,20.00
2018-11-05T13:16:58.288Z,21.33
2018-11-05T13:19:26.420Z,20.37
2018-11-05T13:21:54.547Z,20.88
2018-11-05T13:24:22.653Z,21.55
2018-11-05T13:26:50.774Z,21.87
2018-11-05T13:29:18.873Z,22.77
2018-11-05T13:31:46.968Z,22.00
2018-11-05T13:34:15.216Z,22.07
2018-11-05T13:36:43.388Z,22.13
2018-11-05T13:39:11.512Z,21.90
2018-11-05T13:41:39.613Z,22.93
2018-11-05T13:44:07.899Z,22.33
2018-11-05T13:46:36.399Z,21.55
2018-11-05T13:49:06.458Z,23.17
2018-11-05T13:51:34.086Z,22.35
2018-11-05T13:54:02.384Z,23.27
2018-11-05T13:56:30.428Z,23.10
2018-11-05T13:58:58.561Z,23.00
2018-11-05T14:01:26.662Z,22.75
2018-11-05T14:03:54.797Z,22.85
2018-11-05T14:06:22.914Z,23.05
2018-11-05T14:08:51.092Z,22.02
2018-11-05T14:11:19.212Z,21.40
2018-11-05T14:13:47.403Z,22.67
2018-11-05T14:16:15.508Z,22.77
2018-11-05T14:18:43.662Z,22.02
2018-11-05T14:21:11.856Z,22.00
2018-11-05T14:23:40.098Z,20.88
2018-11-05T14:26:08.634Z,21.42
2018-11-05T14:28:37.081Z,21.63
2018-11-05T14:31:05.152Z,21.33
2018-11-05T14:33:33.252Z,21.02
2018-11-05T14:36:01.517Z,20.60
2018-11-05T14:38:29.651Z,21.45
2018-11-05T14:40:57.893Z,21.12
2018-11-05T14:43:26.004Z,21.30
2018-11-05T14:45:54.089Z,20.82
2018-11-05T14:48:22.212Z,21.27
2018-11-05T14:50:50.558Z,20.27
2018-11-05T14:53:18.485Z,20.93
2018-11-05T14:55:46.661Z,20.20
2018-11-05T14:58:14.769Z,20.40
2018-11-05T15:00:42.918Z,20.10
2018-11-05T15:03:11.097Z,21.65
2018-11-05T15:05:39.307Z,20.97
2018-11-05T15:08:07.405Z,20.68
2018-11-05T15:10:35.593Z,20.88
2018-11-05T15:13:03.761Z,21.12
2018-11-05T15:15:31.865Z,20.05
2018-11-05T15:18:00.028Z,19.20
2018-11-05T15:20:28.160Z,20.10
2018-11-05T15:22:56.212Z,18.73
2018-11-05T15:25:24.480Z,20.65
2018-11-05T15:27:52.578Z,20.23
2018-11-05T15:30:21.865Z,20.45
2018-11-05T15:32:50.073Z,21.05
2018-11-05T15:35:18.189Z,20.12
2018-11-05T15:37:46.482Z,20.25
2018-11-05T15:40:15.809Z,19.77
2018-11-05T15:42:43.968Z,20.70
2018-11-05T15:45:13.421Z,21.73
2018-11-05T15:47:42.103Z,21.07
2018-11-05T15:50:12.035Z,19.45
2018-11-05T15:52:40.538Z,20.48
2018-11-05T15:55:08.422Z,20.90
2018-11-05T15:57:37.369Z,21.57
2018-11-05T16:00:11.969Z,20.68
2018-11-05T16:02:40.153Z,20.43
2018-11-05T16:05:08.337Z,20.45
2018-11-05T16:07:36.555Z,20.82
2018-11-05T16:10:06.144Z,20.70
2018-11-05T16:12:34.832Z,21.23
2018-11-05T16:15:03.070Z,21.55
2018-11-05T16:17:31.145Z,21.57
2018-11-05T16:19:59.401Z,21.73
2018-11-05T16:22:27.546Z,22.37
2018-11-05T16:24:55.670Z,22.42
2018-11-05T16:27:23.810Z,21.57
2018-11-05T16:29:51.925Z,22.73
2018-11-05T16:32:20.045Z,22.62
2018-11-05T16:34:48.322Z,23.12
2018-11-05T16:37:16.422Z,23.45
2018-11-05T16:39:44.791Z,22.25
2018-11-05T16:42:12.749Z,22.50
2018-11-05T16:44:40.870Z,23.52
2018-11-05T16:47:08.940Z,22.13
2018-11-05T16:49:37.509Z,23.52
2018-11-05T16:52:06.129Z,22.60
2018-11-05T16:54:34.280Z,22.45
2018-11-05T16:57:02.434Z,22.62
2018-11-05T16:59:30.524Z,22.60
2018-11-05T17:01:59.113Z,22.45
2018-11-05T17:04:26.749Z,21.40
2018-11-05T17:06:54.861Z,22.17
2018-11-05T17:09:23.032Z,22.83
2018-11-05T17:11:51.169Z,22.77
2018-11-05T17:14:19.461Z,23.38
2018-11-05T17:16:47.702Z,23.70
2018-11-05T17:19:16.627Z,23.07
2018-11-05T17:21:44.688Z,23.80
2018-11-05T17:24:12.833Z,23.55
2018-11-05T17:26:40.916Z,23.57
2018-11-05T17:29:09.091Z,23.15
2018-11-05T17:31:37.321Z,22.22
2018-11-05T17:34:05.529Z,23.20
2018-11-05T17:36:33.658Z,22.75
2018-11-05T17:39:02.012Z,25.12
2018-11-05T17:41:30.130Z,24.90
2018-11-05T17:43:58.503Z,24.57
2018-11-05T17:46:26.649Z,23.85
2018-11-05T17:48:54.915Z,23.92
2018-11-05T17:51:23.163Z,23.87
2018-11-05T17:53:51.290Z,26.35
2018-11-05T17:56:19.477Z,26.82
2018-11-05T17:58:47.628Z,28.70
2018-11-05T18:01:15.792Z,29.02
2018-11-05T18:03:44.058Z,28.53
2018-11-05T18:06:12.129Z,28.12
2018-11-05T18:08:40.276Z,27.82
2018-11-05T18:11:08.381Z,26.80
2018-11-05T18:13:36.643Z,29.05
2018-11-05T18:16:05.093Z,27.77
2018-11-05T18:18:33.616Z,28.00
2018-11-05T18:21:05.688Z,27.37
2018-11-05T18:23:34.310Z,27.67
2018-11-05T18:26:02.969Z,29.63
2018-11-05T18:28:31.133Z,29.90
2018-11-05T18:33:36.683Z,27.13
2018-11-05T18:36:04.962Z,30.12
2018-11-05T18:38:33.175Z,28.90
2018-11-05T18:41:01.376Z,28.30
2018-11-05T18:43:29.629Z,27.48
2018-11-05T18:45:57.984Z,27.42
2018-11-05T18:48:26.594Z,28.35
2018-11-05T18:50:54.817Z,31.50
2018-11-05T18:53:22.948Z,29.52
2018-11-05T18:55:51.082Z,29.57
2018-11-05T18:58:19.302Z,30.82
2018-11-05T19:00:47.443Z,30.75
2018-11-05T19:03:15.738Z,31.70
2018-11-05T19:05:43.827Z,28.60
2018-11-05T19:08:11.987Z,31.37
2018-11-05T19:10:40.120Z,32.55
2018-11-05T19:13:08.294Z,33.25
2018-11-05T19:15:36.457Z,33.43
2018-11-05T19:18:05.210Z,32.42
2018-11-05T19:20:33.325Z,32.50
2018-11-05T19:23:01.501Z,32.80
2018-11-05T19:25:29.590Z,33.50
2018-11-05T19:27:57.857Z,35.00
2018-11-05T19:30:27.217Z,35.15
2018-11-05T19:32:55.276Z,35.88
2018-11-05T19:35:23.380Z,36.45
2018-11-05T19:37:51.486Z,37.73
2018-11-05T19:40:20.106Z,38.33
2018-11-05T19:42:48.862Z,37.08
2018-11-05T19:45:18.265Z,37.05
2018-11-05T19:47:46.424Z,37.35
2018-11-05T19:50:16.957Z,37.20
2018-11-05T19:52:45.964Z,38.17
2018-11-05T19:55:15.208Z,35.80
2018-11-05T19:57:44.200Z,36.80
2018-11-05T20:00:18.457Z,36.03
2018-11-05T20:02:47.169Z,34.57
2018-11-05T20:05:15.747Z,34.75
2018-11-05T20:07:44.437Z,35.70
2018-11-05T20:10:13.061Z,36.13
2018-11-05T20:12:42.013Z,38.80
2018-11-05T20:15:10.285Z,39.33
2018-11-05T20:17:39.680Z,40.15
2018-11-05T20:20:09.497Z,36.85
2018-11-05T20:22:37.723Z,35.83
2018-11-05T20:25:06.868Z,35.52
2018-11-05T20:27:35.393Z,36.63
2018-11-05T20:30:03.527Z,36.60
2018-11-05T20:32:32.186Z,35.58
2018-11-05T20:34:59.988Z,36.48
2018-11-05T20:37:28.312Z,35.17
2018-11-05T20:39:56.644Z,34.75
2018-11-05T20:42:24.706Z,35.65
2018-11-05T20:44:52.798Z,34.70
2018-11-05T20:47:20.969Z,34.35
2018-11-05T20:49:49.077Z,33.88
2018-11-05T20:52:17.293Z,34.98
2018-11-05T20:54:45.772Z,33.93
2018-11-05T20:57:13.966Z,34.35
2018-11-05T20:59:42.094Z,34.10
2018-11-05T21:02:10.352Z,36.28
2018-11-05T21:04:38.481Z,35.38
2018-11-05T21:07:06.630Z,37.08
2018-11-05T21:09:35.257Z,36.15
2018-11-05T21:12:03.337Z,34.20
2018-11-05T21:14:31.694Z,34.58
2018-11-05T21:17:03.354Z,36.48
2018-11-05T21:19:31.660Z,34.30
2018-11-05T21:22:00.013Z,33.25
2018-11-05T21:24:27.976Z,34.23
2018-11-05T21:26:56.457Z,35.10
2018-11-05T21:29:25.877Z,39.15
2018-11-05T21:31:54.057Z,35.47
2018-11-05T21:34:22.156Z,32.48
2018-11-05T21:36:50.254Z,35.35
2018-11-05T21:39:18.358Z,34.60
2018-11-05T21:41:46.469Z,34.60
2018-11-05T21:44:14.573Z,33.25
2018-11-05T21:46:42.683Z,32.50
2018-11-05T21:49:11.001Z,34.65
2018-11-05T21:51:39.095Z,33.85
2018-11-05T21:54:07.227Z,32.63
2018-11-05T21:56:35.364Z,31.27
2018-11-05T21:59:03.539Z,31.57
2018-11-05T22:01:31.637Z,31.75
2018-11-05T22:03:59.790Z,31.77
2018-11-05T22:06:27.900Z,31.87
2018-11-05T22:08:56.012Z,31.42
2018-11-05T22:11:24.109Z,31.33
2018-11-05T22:13:52.268Z,32.45
2018-11-05T22:16:20.392Z,33.08
2018-11-05T22:18:48.562Z,32.73
2018-11-05T22:21:16.692Z,31.23
2018-11-05T22:23:44.841Z,32.80
2018-11-05T22:26:12.960Z,34.33
2018-11-05T22:28:41.216Z,32.33
2018-11-05T22:31:09.430Z,30.30
2018-11-05T22:33:37.682Z,31.40
2018-11-05T22:36:05.803Z,30.43
2018-11-05T22:38:33.927Z,30.43
2018-11-05T22:41:02.032Z,30.05
2018-11-05T22:43:30.219Z,29.57
2018-11-05T22:45:58.338Z,30.23
2018-11-05T22:48:26.604Z,29.52
2018-11-05T22:50:54.717Z,29.48
2018-11-05T22:53:22.845Z,30.02
2018-11-05T22:55:50.962Z,30.45
2018-11-05T22:58:19.130Z,32.38
2018-11-05T23:00:52.809Z,33.45
2018-11-05T23:03:26.201Z,32.55
2018-11-05T23:05:54.323Z,31.33
2018-11-05T23:08:22.534Z,35.43
2018-11-05T23:10:50.644Z,32.15
2018-11-05T23:13:18.770Z,32.63
2018-11-05T23:15:46.922Z,36.68
2018-11-05T23:18:15.175Z,37.55
2018-11-05T23:20:43.259Z,38.27
2018-11-05T23:23:11.440Z,41.33
2018-11-05T23:25:39.586Z,40.10
2018-11-05T23:28:07.963Z,43.05
2018-11-05T23:30:36.100Z,42.93
2018-11-05T23:33:04.417Z,40.12
2018-11-05T23:35:32.532Z,43.83
2018-11-05T23:38:00.696Z,41.23
2018-11-05T23:40:28.809Z,41.05
2018-11-05T23:42:56.924Z,40.38
2018-11-05T23:45:25.096Z,37.10
2018-11-05T23:47:53.305Z,34.35
2018-11-05T23:50:21.437Z,34.27
2018-11-05T23:52:49.580Z,35.77
2018-11-05T23:55:17.709Z,36.75
2018-11-05T23:57:45.832Z,41.77
